Scotia — MXHR6 — position and weather

sailwx.info

Track history (hours):
 
Tides and Currents Weather Stations Pressure Air Temp Water Temp Dewpoint Dewpoint Depression Visibility Wind Speed Wind Dir Waves Ship Positions

Oceanographic research ship Scotia (UK)

Detailed information on ship capabilities available from University of Delaware's Ocean Information Center.

Last reported at 2020-Jan-24 12:00 UTC. Time now 2020-Jan-25 16:47 UTC.
Position N 57°16' W 001°48'.

Length 68.6 m; beam 15 m; draft 5.6 m.

Type: Other ship. MMSI: 234973000.

Date/timePositionNaut miles runAvg speedWind from/ knotsBaromVisibWave heightAir tempDewpointWater temp
2020-Jan-24 12:00N 57°16' W 001°48'2 2.3
2020-Jan-24 11:00N 57°15' W 001°52'1 2.7
2020-Jan-24 10:30N 57°14' W 001°53'2 4.2
2020-Jan-24 10:00N 57°12' W 001°56'6 2.5
2020-Jan-24 07:30N 57°09' W 002°05'0 0.0
2020-Jan-24 07:00N 57°09' W 002°05'0 0.0
2020-Jan-24 03:30N 57°09' W 002°05'0 0.0
2020-Jan-24 02:30N 57°09' W 002°05'0 0.0
2020-Jan-24 00:30N 57°09' W 002°05'0 0.0
2020-Jan-23 23:30N 57°09' W 002°05'0 0.0
2020-Jan-23 22:00N 57°09' W 002°05'0 0.0
2020-Jan-23 16:30N 57°09' W 002°05'0 0.0
2020-Jan-23 15:30N 57°09' W 002°05'0 0.0
2020-Jan-23 14:00N 57°09' W 002°05'0 0.0
2020-Jan-23 12:30N 57°09' W 002°05'0 0.0
2020-Jan-23 11:00N 57°09' W 002°05'0 0.0
2020-Jan-23 10:00N 57°09' W 002°05'0 0.0
2020-Jan-23 06:00N 57°09' W 002°05'0 0.0
2020-Jan-23 05:30N 57°09' W 002°05'0 0.0
2020-Jan-22 19:00N 57°09' W 002°05'0 0.0
2020-Jan-22 15:00N 57°09' W 002°05'0 0.0
2020-Jan-22 13:00N 57°09' W 002°05'0 0.0
2020-Jan-22 11:00N 57°09' W 002°05'0 0.0
2020-Jan-22 09:00N 57°09' W 002°05'0 0.0
2020-Jan-22 08:30N 57°09' W 002°05'0 0.0
2020-Jan-22 04:00N 57°09' W 002°05'0 0.0
2020-Jan-22 03:30N 57°09' W 002°05'0 0.0
2020-Jan-22 00:00N 57°09' W 002°05'0 0.0
2020-Jan-21 20:30N 57°09' W 002°05'0 0.0
2020-Jan-21 13:00N 57°09' W 002°05'0 0.0
2020-Jan-21 11:30N 57°09' W 002°05'0 0.0
2020-Jan-21 10:30N 57°09' W 002°05'0 0.0
2020-Jan-21 07:30N 57°09' W 002°05'0 0.0
2020-Jan-21 07:00N 57°09' W 002°05'0 0.0
2020-Jan-21 04:00N 57°09' W 002°05'0 0.0
2020-Jan-21 03:30N 57°09' W 002°05'0 0.0
2020-Jan-21 03:00N 57°09' W 002°05'0 0.0
2020-Jan-21 01:30N 57°09' W 002°05'0 0.0
2020-Jan-21 01:00N 57°09' W 002°05'0 0.0
2020-Jan-20 21:00N 57°09' W 002°05'0 0.0
2020-Jan-20 18:30N 57°09' W 002°05'0 0.0
2020-Jan-20 17:00N 57°09' W 002°05'0 0.0
2020-Jan-20 15:00N 57°09' W 002°05'0 0.0
2020-Jan-20 13:30N 57°09' W 002°05'0 0.0
2020-Jan-20 12:00N 57°09' W 002°05'0 0.0
2020-Jan-20 11:00N 57°09' W 002°05'0 0.0
2020-Jan-20 09:30N 57°09' W 002°05'0 0.0
2020-Jan-20 09:00N 57°09' W 002°05'0 0.0
2020-Jan-20 07:00N 57°09' W 002°05'0 0.0
2020-Jan-20 06:00N 57°09' W 002°05'0 0.0
2020-Jan-20 05:30N 57°09' W 002°05'0 0.0
2020-Jan-20 05:00N 57°09' W 002°05'0 0.0
2020-Jan-20 03:30N 57°09' W 002°05'0 0.0
2020-Jan-20 02:30N 57°09' W 002°05'0 0.0
2020-Jan-20 01:30N 57°09' W 002°05'0 0.0
2020-Jan-20 01:00N 57°09' W 002°05'0 0.0
2020-Jan-19 23:30N 57°09' W 002°05'0 0.0
2020-Jan-19 21:00N 57°09' W 002°05'0 0.0
2020-Jan-19 19:00N 57°09' W 002°05'0 0.0
2020-Jan-19 18:30N 57°09' W 002°05'0 0.0
2020-Jan-19 16:30N 57°09' W 002°05'2 0.6
2020-Jan-19 13:00N 57°09' W 002°02'8 3.9
2020-Jan-19 11:01N 57°16' W 001°53'0 0.3
2020-Jan-19 10:29N 57°16' W 001°53'1 2.5
2020-Jan-19 10:00N 57°15' W 001°54'3 2.0
2020-Jan-19 08:29N 57°17' W 001°51'5 2.4
2020-Jan-19 06:30N 57°21' W 001°46'1 0.3
2020-Jan-19 04:30N 57°21' W 001°47'4 4.1
2020-Jan-19 03:31N 57°17' W 001°51'5 2.0
2020-Jan-19 01:01N 57°22' W 001°47'1 2.9
2020-Jan-19 00:30N 57°23' W 001°46'10 4.0
2020-Jan-18 22:00N 57°14' W 001°54'2 3.9
2020-Jan-18 21:30N 57°13' W 001°56'7 6.6
2020-Jan-18 20:30N 57°06' W 001°59'6 6.2
2020-Jan-18 19:30N 57°01' W 002°04'41 4.5
2020-Jan-18 10:30N 56°23' W 002°31'16 4.0
2020-Jan-18 06:30N 56°07' W 002°37'2 4.2
2020-Jan-18 06:00N 56°05' W 002°36'18 4.3
2020-Jan-18 01:58N 55°57' W 002°08'4 4.6
2020-Jan-18 01:00N 55°53' W 002°03'4 3.9
2020-Jan-18 00:00N 55°50' W 001°59'26 6.5
2020-Jan-17 20:00N 56°05' W 002°37'3 1.7
2020-Jan-17 18:30N 56°06' W 002°42'0 0.0
2020-Jan-17 17:31N 56°06' W 002°42'1 1.0
2020-Jan-17 16:31N 56°05' W 002°40'2 1.6
2020-Jan-17 15:00N 56°05' W 002°36'4 0.6
2020-Jan-17 08:16N 56°08' W 002°31'4 3.3
2020-Jan-17 07:00N 56°10' W 002°38'21 7.7
2020-Jan-17 04:16N 56°30' W 002°26'311.1
2020-Jan-17 03:59N 56°33' W 002°24'33 9.6
2020-Jan-17 00:30N 57°03' W 001°58'34 4.9
2020-Jan-16 17:30N 57°36' W 001°42'2 4.4
2020-Jan-16 17:00N 57°38' W 001°44'77 2.9
2020-Jan-15 14:00N 58°43' W 003°05'2013.1
2020-Jan-15 12:30N 58°42' W 003°43'1212.3
2020-Jan-15 11:30N 58°41' W 004°07'2912.4
2020-Jan-15 09:12N 58°40' W 005°02'1212.6
2020-Jan-15 08:15N 58°30' W 005°15'  
Track history (hours):
 
Tides and Currents Weather Stations Pressure Air Temp Water Temp Dewpoint Dewpoint Depression Visibility Wind Speed Wind Dir Waves Ship Positions

Oceanographic research ship Scotia (UK)

Detailed information on ship capabilities available from University of Delaware's Ocean Information Center.

Last reported at 2020-Jan-24 12:00 UTC. Time now 2020-Jan-25 16:47 UTC.
Position N 57°16' W 001°48'.

Length 68.6 m; beam 15 m; draft 5.6 m.

Type: Other ship. MMSI: 234973000.

Date/timePositionNaut miles runAvg speedWind from/ knotsBaromVisibWave heightAir tempDewpointWater temp
2020-Jan-24 12:00N 57°16' W 001°48'2 2.3
2020-Jan-24 11:00N 57°15' W 001°52'1 2.7
2020-Jan-24 10:30N 57°14' W 001°53'2 4.2
2020-Jan-24 10:00N 57°12' W 001°56'6 2.5
2020-Jan-24 07:30N 57°09' W 002°05'0 0.0
2020-Jan-24 07:00N 57°09' W 002°05'0 0.0
2020-Jan-24 03:30N 57°09' W 002°05'0 0.0
2020-Jan-24 02:30N 57°09' W 002°05'0 0.0
2020-Jan-24 00:30N 57°09' W 002°05'0 0.0
2020-Jan-23 23:30N 57°09' W 002°05'0 0.0
2020-Jan-23 22:00N 57°09' W 002°05'0 0.0
2020-Jan-23 16:30N 57°09' W 002°05'0 0.0
2020-Jan-23 15:30N 57°09' W 002°05'0 0.0
2020-Jan-23 14:00N 57°09' W 002°05'0 0.0
2020-Jan-23 12:30N 57°09' W 002°05'0 0.0
2020-Jan-23 11:00N 57°09' W 002°05'0 0.0
2020-Jan-23 10:00N 57°09' W 002°05'0 0.0
2020-Jan-23 06:00N 57°09' W 002°05'0 0.0
2020-Jan-23 05:30N 57°09' W 002°05'0 0.0
2020-Jan-22 19:00N 57°09' W 002°05'0 0.0
2020-Jan-22 15:00N 57°09' W 002°05'0 0.0
2020-Jan-22 13:00N 57°09' W 002°05'0 0.0
2020-Jan-22 11:00N 57°09' W 002°05'0 0.0
2020-Jan-22 09:00N 57°09' W 002°05'0 0.0
2020-Jan-22 08:30N 57°09' W 002°05'0 0.0
2020-Jan-22 04:00N 57°09' W 002°05'0 0.0
2020-Jan-22 03:30N 57°09' W 002°05'0 0.0
2020-Jan-22 00:00N 57°09' W 002°05'0 0.0
2020-Jan-21 20:30N 57°09' W 002°05'0 0.0
2020-Jan-21 13:00N 57°09' W 002°05'0 0.0
2020-Jan-21 11:30N 57°09' W 002°05'0 0.0
2020-Jan-21 10:30N 57°09' W 002°05'0 0.0
2020-Jan-21 07:30N 57°09' W 002°05'0 0.0
2020-Jan-21 07:00N 57°09' W 002°05'0 0.0
2020-Jan-21 04:00N 57°09' W 002°05'0 0.0
2020-Jan-21 03:30N 57°09' W 002°05'0 0.0
2020-Jan-21 03:00N 57°09' W 002°05'0 0.0
2020-Jan-21 01:30N 57°09' W 002°05'0 0.0
2020-Jan-21 01:00N 57°09' W 002°05'0 0.0
2020-Jan-20 21:00N 57°09' W 002°05'0 0.0
2020-Jan-20 18:30N 57°09' W 002°05'0 0.0
2020-Jan-20 17:00N 57°09' W 002°05'0 0.0
2020-Jan-20 15:00N 57°09' W 002°05'0 0.0
2020-Jan-20 13:30N 57°09' W 002°05'0 0.0
2020-Jan-20 12:00N 57°09' W 002°05'0 0.0
2020-Jan-20 11:00N 57°09' W 002°05'0 0.0
2020-Jan-20 09:30N 57°09' W 002°05'0 0.0
2020-Jan-20 09:00N 57°09' W 002°05'0 0.0
2020-Jan-20 07:00N 57°09' W 002°05'0 0.0
2020-Jan-20 06:00N 57°09' W 002°05'0 0.0
2020-Jan-20 05:30N 57°09' W 002°05'0 0.0
2020-Jan-20 05:00N 57°09' W 002°05'0 0.0
2020-Jan-20 03:30N 57°09' W 002°05'0 0.0
2020-Jan-20 02:30N 57°09' W 002°05'0 0.0
2020-Jan-20 01:30N 57°09' W 002°05'0 0.0
2020-Jan-20 01:00N 57°09' W 002°05'0 0.0
2020-Jan-19 23:30N 57°09' W 002°05'0 0.0
2020-Jan-19 21:00N 57°09' W 002°05'0 0.0
2020-Jan-19 19:00N 57°09' W 002°05'0 0.0
2020-Jan-19 18:30N 57°09' W 002°05'0 0.0
2020-Jan-19 16:30N 57°09' W 002°05'2 0.6
2020-Jan-19 13:00N 57°09' W 002°02'8 3.9
2020-Jan-19 11:01N 57°16' W 001°53'0 0.3
2020-Jan-19 10:29N 57°16' W 001°53'1 2.5
2020-Jan-19 10:00N 57°15' W 001°54'3 2.0
2020-Jan-19 08:29N 57°17' W 001°51'5 2.4
2020-Jan-19 06:30N 57°21' W 001°46'1 0.3
2020-Jan-19 04:30N 57°21' W 001°47'4 4.1
2020-Jan-19 03:31N 57°17' W 001°51'5 2.0
2020-Jan-19 01:01N 57°22' W 001°47'1 2.9
2020-Jan-19 00:30N 57°23' W 001°46'10 4.0
2020-Jan-18 22:00N 57°14' W 001°54'2 3.9
2020-Jan-18 21:30N 57°13' W 001°56'7 6.6
2020-Jan-18 20:30N 57°06' W 001°59'6 6.2
2020-Jan-18 19:30N 57°01' W 002°04'41 4.5
2020-Jan-18 10:30N 56°23' W 002°31'16 4.0
2020-Jan-18 06:30N 56°07' W 002°37'2 4.2
2020-Jan-18 06:00N 56°05' W 002°36'18 4.3
2020-Jan-18 01:58N 55°57' W 002°08'4 4.6
2020-Jan-18 01:00N 55°53' W 002°03'4 3.9
2020-Jan-18 00:00N 55°50' W 001°59'26 6.5
2020-Jan-17 20:00N 56°05' W 002°37'3 1.7
2020-Jan-17 18:30N 56°06' W 002°42'0 0.0
2020-Jan-17 17:31N 56°06' W 002°42'1 1.0
2020-Jan-17 16:31N 56°05' W 002°40'2 1.6
2020-Jan-17 15:00N 56°05' W 002°36'4 0.6
2020-Jan-17 08:16N 56°08' W 002°31'4 3.3
2020-Jan-17 07:00N 56°10' W 002°38'21 7.7
2020-Jan-17 04:16N 56°30' W 002°26'311.1
2020-Jan-17 03:59N 56°33' W 002°24'33 9.6
2020-Jan-17 00:30N 57°03' W 001°58'34 4.9
2020-Jan-16 17:30N 57°36' W 001°42'2 4.4
2020-Jan-16 17:00N 57°38' W 001°44'77 2.9
2020-Jan-15 14:00N 58°43' W 003°05'2013.1
2020-Jan-15 12:30N 58°42' W 003°43'1212.3
2020-Jan-15 11:30N 58°41' W 004°07'2912.4
2020-Jan-15 09:12N 58°40' W 005°02'1212.6
2020-Jan-15 08:15N 58°30' W 005°15'  

Dump ship's entire track history